Time;durP1;ratioP1;P1;durP2;ratioP2;P2;SDS_P1;SDS_P2;PMS_P1;PMS_P2;Temp;Humidity;BMP_temperature;BMP_pressure;BME280_temperature;BME280_humidity;BME280_pressure;Samples;Min_cycle;Max_cycle;Signal;HPM_P1;HPM_P2
2021/10/13 00:01:39;;;;;;;7.68;4.53;;;;;;;9.57;74.76;100634.66;4993621;28;20057;-64
2021/10/13 00:04:32;;;;;;;6.95;4.25;;;;;;;9.57;74.42;100638.97;4994000;28;20050;-64
2021/10/13 00:07:21;;;;;;;7.18;4.78;;;;;;;9.55;74.13;100643.22;4993017;28;20045;-64
2021/10/13 00:10:09;;;;;;;7.40;4.70;;;;;;;9.56;74.27;100648.44;4993968;28;20578;-64
2021/10/13 00:13:00;;;;;;;8.75;4.80;;;;;;;9.54;74.25;100646.66;4992763;28;20580;-65
2021/10/13 00:15:52;;;;;;;8.55;4.50;;;;;;;9.54;74.46;100649.22;4992740;28;20461;-64
2021/10/13 00:18:41;;;;;;;7.55;4.68;;;;;;;9.53;74.08;100656.09;4993809;28;20100;-64
2021/10/13 00:21:34;;;;;;;8.82;4.55;;;;;;;9.53;74.14;100660.41;4993068;28;20081;-63
2021/10/13 00:24:26;;;;;;;7.15;4.35;;;;;;;9.50;74.12;100649.97;4992600;28;20053;-65
2021/10/13 00:27:19;;;;;;;8.77;5.40;;;;;;;9.48;73.92;100655.09;4993645;28;20045;-64
2021/10/13 00:30:04;;;;;;;11.98;5.35;;;;;;;9.48;74.34;100655.09;4993997;28;20089;-65
2021/10/13 00:32:51;;;;;;;7.15;4.63;;;;;;;9.45;74.20;100662.78;4994214;28;20105;-65
2021/10/13 00:35:46;;;;;;;9.85;4.38;;;;;;;9.45;73.96;100658.47;4996120;28;20057;-64
2021/10/13 00:38:39;;;;;;;8.25;4.90;;;;;;;9.44;73.62;100659.28;4996196;28;20053;-64
2021/10/13 00:41:35;;;;;;;7.13;4.60;;;;;;;9.43;74.00;100651.50;4996444;28;20080;-64
2021/10/13 00:44:31;;;;;;;12.00;4.80;;;;;;;9.41;73.99;100646.28;4996825;28;20053;-64
2021/10/13 00:47:24;;;;;;;7.50;4.18;;;;;;;9.40;73.76;100649.69;4996619;28;20134;-64
2021/10/13 00:50:13;;;;;;;7.35;5.00;;;;;;;9.38;73.67;100647.88;4997417;28;20101;-65
2021/10/13 00:52:57;;;;;;;10.45;4.63;;;;;;;9.37;73.87;100654.78;4997094;28;20465;-64
2021/10/13 00:55:41;;;;;;;11.80;4.10;;;;;;;9.37;73.70;100649.59;4997430;28;20188;-64
2021/10/13 00:58:33;;;;;;;9.05;4.80;;;;;;;9.37;73.99;100653.88;4995691;28;20045;-64
2021/10/13 01:01:29;;;;;;;7.30;4.13;;;;;;;9.35;73.70;100656.44;4996229;28;20405;-64
2021/10/13 01:04:38;;;;;;;9.60;5.15;;;;;;;9.35;73.82;100659.03;4996668;28;20042;-64
2021/10/13 01:07:52;;;;;;;5.90;4.40;;;;;;;9.34;73.64;100664.16;4996839;28;20121;-64
2021/10/13 01:11:02;;;;;;;6.45;4.90;;;;;;;9.32;73.49;100668.41;4996769;28;20073;-64
2021/10/13 01:14:16;;;;;;;7.50;4.15;;;;;;;9.31;73.55;100657.16;4995789;28;20052;-64
2021/10/13 01:17:25;;;;;;;8.63;4.75;;;;;;;9.31;73.46;100657.16;4996004;28;20461;-64
2021/10/13 01:20:56;;;;;;;7.60;4.70;;;;;;;9.29;73.50;100651.06;4995387;28;20049;-64
2021/10/13 01:23:56;;;;;;;9.18;5.05;;;;;;;9.26;73.64;100649.25;4995666;28;20088;-64
2021/10/13 01:27:04;;;;;;;9.52;4.60;;;;;;;9.25;73.42;100657.00;4995640;28;20052;-64
2021/10/13 01:29:57;;;;;;;9.23;4.78;;;;;;;9.26;73.59;100651.84;4996858;28;20057;-64
2021/10/13 01:32:55;;;;;;;11.15;5.50;;;;;;;9.23;73.72;100656.91;4995187;28;20042;-64
2021/10/13 01:35:48;;;;;;;7.20;4.28;;;;;;;9.21;73.38;100644.78;4995670;28;20113;-64
2021/10/13 01:38:38;;;;;;;6.68;4.88;;;;;;;9.21;73.43;100649.97;4995643;28;20470;-64
2021/10/13 01:41:26;;;;;;;10.73;4.15;;;;;;;9.22;73.34;100659.47;4995327;28;20093;-64
2021/10/13 01:44:18;;;;;;;11.32;4.57;;;;;;;9.20;73.33;100668.88;4994282;28;20097;-64
2021/10/13 01:47:14;;;;;;;13.43;4.75;;;;;;;9.18;73.26;100666.28;4995132;28;20045;-64
2021/10/13 01:50:05;;;;;;;7.57;4.40;;;;;;;9.18;73.11;100671.44;4995059;28;20049;-64
2021/10/13 01:52:55;;;;;;;10.18;4.82;;;;;;;9.18;73.37;100668.84;4995030;28;20517;-64
2021/10/13 01:55:53;;;;;;;11.68;5.40;;;;;;;9.14;72.94;100665.28;4995231;28;20042;-64
2021/10/13 01:58:48;;;;;;;7.35;4.60;;;;;;;9.15;73.20;100673.94;4994760;28;20062;-64
2021/10/13 02:01:38;;;;;;;9.40;5.13;;;;;;;9.12;72.96;100672.09;4996168;28;20057;-64
2021/10/13 02:04:24;;;;;;;7.53;4.50;;;;;;;9.12;73.38;100679.00;4995567;28;20042;-64
2021/10/13 02:07:20;;;;;;;10.15;4.60;;;;;;;9.12;72.99;100671.22;4995217;28;20092;-64
2021/10/13 02:10:15;;;;;;;7.32;4.68;;;;;;;9.09;73.08;100674.59;4994693;28;20065;-64
2021/10/13 02:13:04;;;;;;;9.25;5.07;;;;;;;9.09;72.99;100672.03;4995567;28;20044;-64
2021/10/13 02:15:55;;;;;;;7.00;4.60;;;;;;;9.09;73.07;100674.59;4994198;28;20564;-65
2021/10/13 02:18:45;;;;;;;6.38;5.07;;;;;;;9.10;73.24;100672.88;4995104;28;20049;-64
2021/10/13 02:21:38;;;;;;;8.65;4.82;;;;;;;9.10;72.91;100678.06;4994815;28;20077;-64
2021/10/13 02:24:39;;;;;;;8.88;5.65;;;;;;;9.09;73.07;100678.88;4994155;28;20049;-65
2021/10/13 02:27:48;;;;;;;7.85;4.43;;;;;;;9.09;72.84;100681.47;4995494;28;20092;-64
2021/10/13 02:30:44;;;;;;;11.82;5.75;;;;;;;9.09;73.09;100684.06;4995615;28;20101;-65
2021/10/13 02:33:36;;;;;;;11.80;5.63;;;;;;;9.09;73.00;100684.06;4995109;28;20109;-64
2021/10/13 02:36:32;;;;;;;9.13;4.80;;;;;;;9.07;72.89;100686.59;4994311;28;20046;-64
2021/10/13 02:39:25;;;;;;;9.90;5.45;;;;;;;9.07;72.85;100676.25;4995434;28;20052;-64
2021/10/13 02:42:24;;;;;;;13.65;4.53;;;;;;;9.08;72.77;100675.44;4994109;28;20046;-64
2021/10/13 02:45:16;;;;;;;13.07;5.50;;;;;;;9.08;73.04;100688.38;4994932;28;20105;-64
2021/10/13 02:48:11;;;;;;;9.90;5.18;;;;;;;9.08;72.80;100687.47;4994737;28;20473;-64
2021/10/13 02:51:04;;;;;;;17.17;5.25;;;;;;;9.08;72.91;100697.81;4995028;28;20060;-64
2021/10/13 02:54:00;;;;;;;7.80;4.78;;;;;;;9.08;73.02;100700.41;4994201;28;20052;-64
2021/10/13 02:56:53;;;;;;;9.50;5.60;;;;;;;9.11;72.89;100705.69;4993838;28;20421;-64
2021/10/13 02:59:54;;;;;;;7.88;4.15;;;;;;;9.09;73.23;100697.00;4994100;28;20049;-64
2021/10/13 03:02:49;;;;;;;13.65;5.90;;;;;;;9.09;72.80;100710.81;4993268;28;20053;-64
2021/10/13 03:05:41;;;;;;;6.72;4.40;;;;;;;9.09;72.75;100699.56;4993722;28;20041;-64
2021/10/13 03:08:33;;;;;;;8.88;5.18;;;;;;;9.08;72.68;100702.97;4993765;28;20061;-64
2021/10/13 03:11:30;;;;;;;9.32;4.55;;;;;;;9.09;73.12;100707.31;4993592;28;20048;-64
2021/10/13 03:14:22;;;;;;;14.95;4.72;;;;;;;9.10;72.76;100703.91;4993796;28;20193;-64
2021/10/13 03:17:08;;;;;;;7.57;4.70;;;;;;;9.11;72.82;100700.50;4994696;28;20047;-64
2021/10/13 03:19:54;;;;;;;6.88;4.70;;;;;;;9.11;72.91;100693.59;4993813;28;20045;-64
2021/10/13 03:22:46;;;;;;;11.73;4.63;;;;;;;9.10;72.91;100696.16;4994647;28;20057;-64
2021/10/13 03:25:37;;;;;;;8.20;5.05;;;;;;;9.11;73.13;100703.94;4994043;28;20066;-64
2021/10/13 03:28:29;;;;;;;7.47;4.38;;;;;;;9.11;73.02;100714.31;4992874;28;20053;-64
2021/10/13 03:31:25;;;;;;;11.88;5.03;;;;;;;9.11;72.95;100703.94;4994651;28;20045;-64
2021/10/13 03:34:16;;;;;;;7.13;4.70;;;;;;;9.12;72.87;100705.72;4993877;28;20513;-64
2021/10/13 03:37:03;;;;;;;12.23;4.75;;;;;;;9.14;72.73;100719.56;4994167;28;20116;-64
2021/10/13 03:39:56;;;;;;;6.97;4.40;;;;;;;9.12;72.75;100716.06;4993446;28;20057;-64
2021/10/13 03:42:40;;;;;;;9.65;4.72;;;;;;;9.13;72.83;100707.47;4993814;28;20122;-64
2021/10/13 03:45:25;;;;;;;6.68;4.38;;;;;;;9.14;72.74;100713.53;4994086;28;20053;-64
2021/10/13 03:48:09;;;;;;;;;;;;;;;9.13;73.00;100717.81;4994363;28;20057;-64
2021/10/13 03:50:58;;;;;;;9.32;4.22;;;;;;;9.12;72.81;100720.38;4994088;28;19921;-64
2021/10/13 03:53:48;;;;;;;6.55;4.03;;;;;;;9.13;73.16;100725.56;4992831;28;20073;-64
2021/10/13 03:56:40;;;;;;;14.50;4.97;;;;;;;9.14;73.01;100726.47;4993165;28;20108;-64
2021/10/13 03:59:32;;;;;;;8.07;4.28;;;;;;;9.14;73.25;100727.34;4993776;28;20048;-64
2021/10/13 04:02:22;;;;;;;9.27;4.97;;;;;;;9.16;72.68;100731.69;4992848;28;20537;-64
2021/10/13 04:05:18;;;;;;;7.07;3.85;;;;;;;9.15;72.66;100741.16;4992372;28;20189;-64
2021/10/13 04:08:11;;;;;;;9.15;4.28;;;;;;;9.15;72.82;100736.00;4996343;28;20053;-64
2021/10/13 04:10:55;;;;;;;6.72;4.50;;;;;;;9.15;72.94;100736.00;4997142;28;20434;-64
2021/10/13 04:13:50;;;;;;;15.43;5.15;;;;;;;9.14;72.76;100745.44;4997607;28;20449;-64
2021/10/13 04:16:36;;;;;;;14.45;5.28;;;;;;;9.14;72.82;100739.41;4996495;28;20105;-64
2021/10/13 04:19:26;;;;;;;10.73;5.47;;;;;;;9.14;73.08;100760.09;4997632;28;20085;-64
2021/10/13 04:22:16;;;;;;;9.82;4.53;;;;;;;9.13;72.90;100756.59;4997212;28;20045;-64
2021/10/13 04:25:04;;;;;;;10.88;4.65;;;;;;;9.14;72.67;100754.91;4996719;28;20528;-64
2021/10/13 04:27:49;;;;;;;9.43;4.18;;;;;;;9.13;72.82;100751.44;4996631;28;20092;-64
2021/10/13 04:30:41;;;;;;;9.23;4.20;;;;;;;9.12;72.92;100749.69;4997632;28;20049;-64
2021/10/13 04:33:25;;;;;;;10.60;5.88;;;;;;;9.13;72.69;100748.84;4996494;28;20100;-64
2021/10/13 04:36:12;;;;;;;10.60;5.72;;;;;;;9.13;72.90;100756.59;4996484;28;20421;-64
2021/10/13 04:39:02;;;;;;;9.25;4.43;;;;;;;9.12;73.09;100759.16;4997220;28;20042;-64
2021/10/13 04:41:50;;;;;;;9.07;3.58;;;;;;;9.12;72.88;100747.09;4996275;28;20053;-64
2021/10/13 04:44:39;;;;;;;9.48;4.28;;;;;;;9.11;72.89;100747.06;4995986;28;20101;-64
2021/10/13 04:47:29;;;;;;;7.45;4.18;;;;;;;9.09;73.03;100744.44;4997043;28;20115;-64
2021/10/13 04:50:13;;;;;;;8.13;3.70;;;;;;;9.09;73.12;100747.00;4996276;28;20041;-64
2021/10/13 04:53:05;;;;;;;6.45;3.65;;;;;;;9.09;73.00;100754.78;4997447;28;20552;-64
2021/10/13 04:55:52;;;;;;;32.03;5.35;;;;;;;9.08;72.89;100758.19;4996118;28;20110;-64
2021/10/13 04:58:36;;;;;;;10.15;4.63;;;;;;;9.10;72.99;100755.63;4996248;28;20072;-64
2021/10/13 05:01:20;;;;;;;8.20;4.70;;;;;;;9.07;72.77;100748.66;4996934;28;20045;-64
2021/10/13 05:04:06;;;;;;;8.02;4.70;;;;;;;9.07;73.08;100751.25;4996764;28;20112;-64
2021/10/13 05:07:00;;;;;;;9.93;5.50;;;;;;;9.05;72.75;100755.50;4995850;28;20088;-64
2021/10/13 05:09:49;;;;;;;9.88;4.90;;;;;;;9.05;73.03;100760.66;4996411;28;20572;-64
2021/10/13 05:12:39;;;;;;;8.77;4.47;;;;;;;9.06;72.90;100757.25;4996004;28;20044;-64
2021/10/13 05:15:31;;;;;;;13.52;4.70;;;;;;;9.03;72.69;100746.78;4995953;28;20105;-64
2021/10/13 05:18:21;;;;;;;9.15;4.35;;;;;;;9.05;72.73;100749.41;4996126;28;20519;-64
2021/10/13 05:21:05;;;;;;;11.13;4.80;;;;;;;9.03;72.66;100751.09;4996145;28;20410;-64
2021/10/13 05:23:49;;;;;;;14.45;5.78;;;;;;;9.01;72.67;100757.94;4996315;28;20041;-64
2021/10/13 05:26:33;;;;;;;7.70;5.78;;;;;;;9.01;72.51;100756.22;4996441;28;20053;-64
2021/10/13 05:29:22;;;;;;;19.05;5.40;;;;;;;9.02;72.78;100757.97;4995512;28;20073;-64
2021/10/13 05:32:06;;;;;;;11.13;5.22;;;;;;;9.03;72.72;100749.38;4995632;28;20076;-64
2021/10/13 05:34:56;;;;;;;12.38;5.63;;;;;;;9.01;72.75;100756.22;4996622;28;20089;-64
2021/10/13 05:37:46;;;;;;;6.70;4.97;;;;;;;9.01;72.85;100760.50;4995302;28;20487;-65
2021/10/13 05:40:33;;;;;;;7.45;4.70;;;;;;;9.02;72.64;100770.03;4995568;28;20406;-64
2021/10/13 05:43:19;;;;;;;7.10;5.10;;;;;;;9.02;72.70;100765.72;4995538;28;20100;-64
2021/10/13 05:46:06;;;;;;;7.95;4.55;;;;;;;9.02;72.74;100765.72;4996204;28;20050;-64
2021/10/13 05:48:53;;;;;;;7.00;4.85;;;;;;;9.01;72.70;100769.13;4996183;28;20104;-64
2021/10/13 05:51:37;;;;;;;10.73;5.28;;;;;;;9.03;72.89;100774.38;4994954;28;20088;-64
2021/10/13 05:54:23;;;;;;;8.98;5.30;;;;;;;9.03;73.04;100780.41;4996073;28;20080;-64
2021/10/13 05:57:10;;;;;;;12.45;5.40;;;;;;;9.04;72.86;100776.09;4994916;28;20105;-64
2021/10/13 06:00:00;;;;;;;10.52;5.20;;;;;;;9.03;72.95;100775.25;4994731;28;20077;-64
2021/10/13 06:02:53;;;;;;;9.32;5.45;;;;;;;9.04;72.62;100784.75;4994734;28;20061;-64
2021/10/13 06:05:48;;;;;;;8.35;4.88;;;;;;;9.04;72.78;100778.69;4996147;28;20454;-64
2021/10/13 06:08:37;;;;;;;10.65;5.82;;;;;;;9.06;72.64;100787.38;4994575;28;20096;-63
2021/10/13 06:11:22;;;;;;;12.70;5.97;;;;;;;9.06;72.86;100785.69;4995774;28;20465;-64
2021/10/13 06:14:08;;;;;;;7.82;5.05;;;;;;;9.05;72.95;100794.28;4995615;28;20420;-64
2021/10/13 06:16:58;;;;;;;8.45;5.18;;;;;;;9.04;73.04;100789.94;4995939;28;20046;-64
2021/10/13 06:19:50;;;;;;;11.15;5.50;;;;;;;9.06;72.78;100800.31;4995078;28;20104;-64
2021/10/13 06:22:34;;;;;;;15.85;5.60;;;;;;;9.07;72.89;100804.66;4995872;28;20057;-64
2021/10/13 06:25:21;;;;;;;16.90;5.85;;;;;;;9.07;73.04;100810.72;4995458;28;20481;-64
2021/10/13 06:28:11;;;;;;;9.30;5.80;;;;;;;9.08;72.85;100811.59;4995596;28;20061;-64
2021/10/13 06:31:03;;;;;;;11.30;6.25;;;;;;;9.07;73.01;100813.31;4994012;28;20108;-64
2021/10/13 06:33:47;;;;;;;8.15;5.10;;;;;;;9.08;72.89;100821.94;4994001;28;20068;-64
2021/10/13 06:36:31;;;;;;;13.45;7.10;;;;;;;9.09;72.66;100823.69;4995432;28;20074;-64
2021/10/13 06:39:15;;;;;;;11.85;6.10;;;;;;;9.10;72.96;100830.63;4995096;28;20041;-64
2021/10/13 06:42:04;;;;;;;9.15;6.15;;;;;;;9.09;73.19;100837.53;4994663;28;20089;-64
2021/10/13 06:44:48;;;;;;;10.57;6.68;;;;;;;9.10;72.85;100836.69;4993949;28;20050;-64
2021/10/13 06:47:36;;;;;;;12.77;6.95;;;;;;;9.10;72.98;100841.88;4993936;28;20417;-64
2021/10/13 06:50:31;;;;;;;10.43;6.43;;;;;;;9.11;72.86;100842.75;4993750;28;20061;-64
2021/10/13 06:53:15;;;;;;;8.90;5.80;;;;;;;9.12;73.00;100839.31;4994458;28;20182;-64
2021/10/13 06:56:10;;;;;;;8.82;6.82;;;;;;;9.13;73.19;100846.25;4994860;28;20118;-64
2021/10/13 06:58:57;;;;;;;16.40;7.13;;;;;;;9.14;73.38;100850.59;4993325;28;20417;-64
2021/10/13 07:01:41;;;;;;;16.02;6.85;;;;;;;9.14;72.86;100853.19;4993745;28;20097;-64
2021/10/13 07:04:28;;;;;;;11.27;6.35;;;;;;;9.13;72.99;100844.53;4994240;28;20490;-64
2021/10/13 07:07:14;;;;;;;11.93;6.95;;;;;;;9.17;73.15;100849.81;4993954;28;20180;-64
2021/10/13 07:09:58;;;;;;;10.50;6.72;;;;;;;9.17;73.22;100863.66;4993902;28;20238;-64
2021/10/13 07:12:46;;;;;;;9.13;5.80;;;;;;;9.18;73.09;100867.09;4994174;28;20061;-64
2021/10/13 07:15:38;;;;;;;7.07;5.80;;;;;;;9.19;73.10;100868.88;4994599;28;20109;-64
2021/10/13 07:18:25;;;;;;;13.18;7.38;;;;;;;9.20;73.06;100875.81;4993246;28;20100;-64
2021/10/13 07:21:09;;;;;;;8.13;5.93;;;;;;;9.21;73.33;100872.38;4993707;28;20113;-64
2021/10/13 07:23:53;;;;;;;9.38;6.32;;;;;;;9.23;73.42;100886.25;4993891;28;20065;-64
2021/10/13 07:26:37;;;;;;;9.40;6.60;;;;;;;9.21;73.48;100877.56;4993530;28;20515;-64
2021/10/13 07:29:26;;;;;;;;;;;;;;;9.23;73.29;100874.19;4993404;28;20049;-64
2021/10/13 07:32:16;;;;;;;10.32;6.90;;;;;;;9.24;73.14;100875.09;5007006;28;19920;-64
2021/10/13 07:35:07;;;;;;;13.18;7.15;;;;;;;9.26;73.45;100884.66;4993220;28;20053;-64
2021/10/13 07:37:55;;;;;;;15.15;7.45;;;;;;;9.26;73.36;100889.81;4994503;28;20049;-64
2021/10/13 07:40:45;;;;;;;12.68;6.45;;;;;;;9.28;73.42;100885.59;4993943;28;20120;-64
2021/10/13 07:43:34;;;;;;;13.77;7.38;;;;;;;9.27;73.27;100888.09;4992823;28;20508;-64
2021/10/13 07:46:23;;;;;;;13.50;7.72;;;;;;;9.28;73.48;100877.81;4993546;28;20049;-64
2021/10/13 07:49:09;;;;;;;13.25;7.32;;;;;;;9.30;73.53;100885.63;4993649;28;20049;-64
2021/10/13 07:51:56;;;;;;;15.98;7.80;;;;;;;9.30;73.38;100880.47;4993024;28;20100;-64
2021/10/13 07:54:46;;;;;;;14.20;7.05;;;;;;;9.32;73.55;100885.69;4993955;28;20069;-64
2021/10/13 07:57:35;;;;;;;10.25;7.28;;;;;;;9.32;73.54;100886.56;4992804;28;20549;-64
2021/10/13 08:00:20;;;;;;;9.07;7.18;;;;;;;9.34;73.55;100884.91;4993306;28;20077;-64
2021/10/13 08:03:04;;;;;;;;;;;;;;;9.34;73.49;100884.91;4994521;28;20097;-64
2021/10/13 08:05:51;;;;;;;11.82;7.43;;;;;;;9.35;73.80;100893.53;4994256;28;20000;-64
2021/10/13 08:08:35;;;;;;;12.55;7.53;;;;;;;9.35;73.54;100894.44;4993929;28;20417;-64
2021/10/13 08:11:19;;;;;;;10.65;6.70;;;;;;;9.36;73.77;100893.63;4993919;28;20057;-64
2021/10/13 08:14:07;;;;;;;17.10;7.88;;;;;;;9.37;73.87;100892.78;4993912;28;20452;-64
2021/10/13 08:16:52;;;;;;;13.05;7.15;;;;;;;9.39;73.72;100888.56;4994188;28;20065;-64
2021/10/13 08:19:39;;;;;;;12.40;7.40;;;;;;;9.38;73.70;100884.19;4993855;28;20085;-64
2021/10/13 08:22:28;;;;;;;13.00;7.18;;;;;;;9.41;73.57;100899.84;4993102;28;20093;-64
2021/10/13 08:25:12;;;;;;;9.65;7.00;;;;;;;9.42;74.04;100890.34;4992627;28;20052;-64
2021/10/13 08:27:56;;;;;;;13.43;6.95;;;;;;;9.44;73.70;100888.69;4993708;28;20521;-64
2021/10/13 08:33:06;;;;;;;12.43;8.35;;;;;;;9.45;73.74;100896.50;5131926;27;20147;-64
2021/10/13 08:35:52;;;;;;;16.88;7.50;;;;;;;9.47;74.13;100888.81;5131953;28;20554;-65
2021/10/13 08:38:36;;;;;;;14.80;7.60;;;;;;;9.49;73.89;100894.03;5116591;28;20046;-65
2021/10/13 08:41:29;;;;;;;20.92;7.43;;;;;;;9.49;74.15;100888.84;5131828;28;20062;-65
2021/10/13 08:44:17;;;;;;;10.75;7.32;;;;;;;9.52;74.18;100894.13;5115385;28;20076;-65
2021/10/13 08:47:08;;;;;;;11.65;7.57;;;;;;;9.52;74.24;100892.41;5116236;28;20143;-65
2021/10/13 08:49:53;;;;;;;11.40;6.93;;;;;;;9.54;73.96;100900.25;5116605;28;20051;-65
2021/10/13 08:52:42;;;;;;;14.95;8.13;;;;;;;9.55;74.25;100899.44;5131160;28;20049;-65
2021/10/13 08:55:26;;;;;;;11.15;7.30;;;;;;;9.58;74.49;100899.50;5116162;28;20096;-65
2021/10/13 08:58:10;;;;;;;14.85;8.07;;;;;;;9.59;74.24;100898.69;5131234;28;20051;-63
2021/10/13 09:01:03;;;;;;;14.27;7.03;;;;;;;9.63;74.34;100894.50;5115731;28;20544;-65
2021/10/13 09:03:55;;;;;;;11.25;7.00;;;;;;;9.63;74.34;100895.38;5131334;28;20557;-64
2021/10/13 09:06:39;;;;;;;10.30;6.72;;;;;;;9.63;74.09;100895.38;5116105;28;20096;-65
2021/10/13 09:09:23;;;;;;;9.45;6.70;;;;;;;9.65;74.10;100900.63;5131433;28;20050;-65
2021/10/13 09:12:07;;;;;;;14.07;6.82;;;;;;;9.65;74.43;100898.03;5131234;28;20065;-65
2021/10/13 09:14:55;;;;;;;14.45;6.95;;;;;;;9.65;74.20;100893.72;5116429;28;20100;-65
2021/10/13 09:17:54;;;;;;;12.30;7.15;;;;;;;9.67;74.14;100896.34;5131025;28;20046;-63
2021/10/13 09:20:42;;;;;;;10.93;6.60;;;;;;;9.69;74.16;100899.88;5115336;28;20551;-64
2021/10/13 09:23:30;;;;;;;13.52;7.30;;;;;;;9.68;74.21;100904.19;5131294;28;20073;-63
2021/10/13 09:26:14;;;;;;;10.25;6.70;;;;;;;9.69;74.11;100910.22;5144580;27;20092;-63
2021/10/13 09:28:58;;;;;;;9.93;6.38;;;;;;;9.71;74.37;100904.28;5130928;28;20043;-63
2021/10/13 09:31:42;;;;;;;;;;;;;;;9.70;74.35;100902.53;5131339;28;20512;-63
2021/10/13 09:34:26;;;;;;;9.20;6.15;;;;;;;9.71;73.96;100904.28;5115761;28;19923;-64
2021/10/13 09:37:13;;;;;;;15.30;6.20;;;;;;;9.71;74.25;100909.47;5130988;28;20112;-63
2021/10/13 09:40:02;;;;;;;8.68;6.70;;;;;;;9.73;74.05;100905.19;5115203;28;20096;-62
2021/10/13 09:42:49;;;;;;;10.27;6.93;;;;;;;9.75;74.26;100913.91;5125935;28;20186;-63
2021/10/13 09:45:37;;;;;;;9.40;5.97;;;;;;;9.78;74.41;100913.13;5101541;28;20070;-63
2021/10/13 09:48:22;;;;;;;10.32;6.22;;;;;;;9.79;74.31;100914.91;5101683;28;20096;-64
2021/10/13 09:51:21;;;;;;;7.68;5.38;;;;;;;9.80;74.36;100919.25;5101176;28;20046;-64
2021/10/13 09:54:12;;;;;;;10.07;5.50;;;;;;;9.82;74.22;100920.16;5101483;28;20113;-62
2021/10/13 09:56:56;;;;;;;9.13;5.15;;;;;;;9.84;74.53;100915.91;5101385;28;20046;-62
2021/10/13 10:00:13;;;;;;;10.07;5.88;;;;;;;9.86;74.40;100919.44;5116691;28;20414;-62
2021/10/13 10:03:04;;;;;;;11.30;6.22;;;;;;;9.87;74.46;100926.38;5100996;28;20078;-63
2021/10/13 10:05:48;;;;;;;7.03;5.35;;;;;;;9.89;74.11;100931.59;5101408;28;20462;-63
2021/10/13 10:09:04;;;;;;;7.22;5.60;;;;;;;9.89;74.59;100929.00;5116168;28;20139;-63
2021/10/13 10:11:50;;;;;;;11.30;5.32;;;;;;;9.90;74.51;100920.41;5096575;28;20045;-63
2021/10/13 10:14:37;;;;;;;9.40;5.40;;;;;;;9.91;74.02;100927.34;5101320;28;20055;-63
2021/10/13 10:17:39;;;;;;;11.43;6.10;;;;;;;9.92;74.15;100923.94;5101091;28;20056;-63
2021/10/13 10:20:40;;;;;;;10.63;5.30;;;;;;;9.93;74.30;100932.59;5116151;28;20123;-63
2021/10/13 10:23:35;;;;;;;7.72;5.65;;;;;;;9.93;74.26;100936.03;5100561;28;20047;-63
2021/10/13 10:26:31;;;;;;;8.10;4.55;;;;;;;9.95;74.10;100939.56;5129364;27;20042;-63
2021/10/13 10:29:16;;;;;;;5.93;5.10;;;;;;;9.97;74.48;100942.19;5115917;28;20046;-63
2021/10/13 10:32:00;;;;;;;9.45;5.03;;;;;;;9.96;74.22;100936.16;5116121;28;20058;-64
2021/10/13 10:35:10;;;;;;;8.35;4.80;;;;;;;9.98;74.17;100936.19;5100464;28;20069;-64
2021/10/13 10:37:55;;;;;;;6.63;4.70;;;;;;;9.99;74.21;100941.44;5100183;28;20124;-65
2021/10/13 10:40:39;;;;;;;7.90;5.00;;;;;;;9.99;74.31;100949.22;5100925;28;20387;-64
2021/10/13 10:43:33;;;;;;;9.85;5.05;;;;;;;10.01;74.47;100951.84;5115449;28;20092;-65
2021/10/13 10:46:20;;;;;;;8.20;4.35;;;;;;;10.00;74.21;100940.63;5116033;28;20402;-63
2021/10/13 10:49:06;;;;;;;9.43;4.28;;;;;;;10.02;74.55;100943.25;5100439;28;20088;-62
2021/10/13 10:52:01;;;;;;;7.22;4.07;;;;;;;10.01;74.44;100950.16;5115287;28;20120;-63
2021/10/13 10:55:12;;;;;;;7.50;4.07;;;;;;;10.02;74.36;100949.31;5099342;28;20058;-64
2021/10/13 10:57:55;;;;;;;9.10;4.63;;;;;;;10.02;74.51;100951.00;5115467;28;20097;-65
2021/10/13 11:00:43;;;;;;;6.85;3.65;;;;;;;10.01;74.63;100954.44;5115402;28;20131;-65
2021/10/13 11:03:38;;;;;;;7.85;4.03;;;;;;;10.02;74.54;100957.09;5099740;28;20085;-65
2021/10/13 11:06:26;;;;;;;5.40;3.78;;;;;;;10.02;74.71;100953.59;5099845;28;20050;-64
2021/10/13 11:09:12;;;;;;;7.65;4.25;;;;;;;10.02;74.59;100953.59;5099761;28;20067;-64
2021/10/13 11:11:58;;;;;;;7.80;4.40;;;;;;;10.04;74.98;100964.88;5129065;27;20047;-64
2021/10/13 11:14:42;;;;;;;7.05;5.53;;;;;;;10.04;74.88;100964.88;5114789;28;20103;-64
2021/10/13 11:17:26;;;;;;;9.20;4.70;;;;;;;10.04;74.75;100968.34;5115503;28;20042;-64
2021/10/13 11:20:17;;;;;;;6.85;4.38;;;;;;;10.04;75.13;100970.94;5099388;28;20411;-64
2021/10/13 11:23:04;;;;;;;9.40;4.93;;;;;;;10.08;74.74;100971.94;5128193;27;20530;-64
2021/10/13 11:25:55;;;;;;;9.18;5.28;;;;;;;10.05;74.63;100975.28;5115166;28;20053;-64
2021/10/13 11:28:41;;;;;;;6.63;4.55;;;;;;;10.06;74.69;100974.47;5114946;28;20476;-64
2021/10/13 11:31:27;;;;;;;5.47;4.47;;;;;;;10.08;74.92;100971.94;5114650;28;20101;-64
2021/10/13 11:34:16;;;;;;;12.18;4.60;;;;;;;10.09;74.83;100967.63;5099324;28;20043;-64
2021/10/13 11:37:02;;;;;;;6.63;4.30;;;;;;;10.08;74.84;100964.19;5100026;28;20043;-64
2021/10/13 11:39:45;;;;;;;11.18;4.47;;;;;;;10.08;74.78;100976.22;5099579;28;20111;-64
2021/10/13 11:42:31;;;;;;;7.22;4.53;;;;;;;10.07;75.01;100972.78;5114839;28;20145;-64
2021/10/13 11:45:24;;;;;;;9.25;4.30;;;;;;;10.08;75.06;100976.22;5099385;28;20112;-64
2021/10/13 11:48:08;;;;;;;5.77;3.80;;;;;;;10.06;74.97;100976.19;5099081;28;20054;-64
2021/10/13 11:50:56;;;;;;;8.07;4.80;;;;;;;10.08;75.05;100974.53;5114185;28;20475;-64
2021/10/13 11:53:49;;;;;;;6.05;4.03;;;;;;;10.09;74.71;100973.69;5099343;28;20097;-64
2021/10/13 11:56:35;;;;;;;8.60;4.53;;;;;;;10.10;74.89;100965.09;5113885;28;20582;-64
2021/10/13 11:59:19;;;;;;;6.60;3.67;;;;;;;10.13;75.10;100966.91;5114341;28;20517;-65
2021/10/13 12:02:16;;;;;;;6.10;3.70;;;;;;;10.15;75.04;100967.84;5114305;28;20058;-64
2021/10/13 12:05:07;;;;;;;4.95;3.58;;;;;;;10.15;74.78;100973.88;5098951;28;20088;-64
2021/10/13 12:07:51;;;;;;;7.78;4.28;;;;;;;10.16;74.86;100969.59;5099121;28;20509;-64
2021/10/13 12:10:44;;;;;;;11.27;5.72;;;;;;;10.17;74.78;100961.00;5113966;28;20050;-64
2021/10/13 12:13:29;;;;;;;5.57;4.13;;;;;;;10.23;75.07;100950.81;5098539;28;20046;-64
2021/10/13 12:16:19;;;;;;;5.80;4.20;;;;;;;10.24;75.17;100954.31;5114044;28;20050;-64
2021/10/13 12:19:15;;;;;;;8.75;4.63;;;;;;;10.24;75.20;100952.56;5098666;28;20042;-64
2021/10/13 12:22:03;;;;;;;6.43;4.53;;;;;;;10.24;75.14;100955.16;5098131;28;20089;-64
2021/10/13 12:24:50;;;;;;;7.53;4.03;;;;;;;10.25;74.96;100940.53;5098822;28;20399;-64
2021/10/13 12:27:35;;;;;;;6.68;4.40;;;;;;;10.28;74.78;100935.41;5114133;28;20468;-64
2021/10/13 12:30:36;;;;;;;5.53;3.75;;;;;;;10.29;74.54;100930.28;5114034;28;20096;-64
2021/10/13 12:33:20;;;;;;;6.43;3.90;;;;;;;10.35;74.71;100927.00;5113416;28;20043;-64
2021/10/13 12:36:13;;;;;;;5.57;3.92;;;;;;;10.36;74.68;100928.78;5098848;28;20062;-64
2021/10/13 12:39:01;;;;;;;7.30;3.97;;;;;;;10.38;74.67;100929.75;5113356;28;20096;-63
2021/10/13 12:41:48;;;;;;;7.70;4.40;;;;;;;10.38;74.67;100931.41;5098192;28;20419;-65
2021/10/13 12:44:33;;;;;;;6.00;4.22;;;;;;;10.37;74.61;100922.75;5113875;28;20119;-65
2021/10/13 12:47:18;;;;;;;7.70;4.95;;;;;;;10.39;74.60;100926.31;5098351;28;20461;-65
2021/10/13 12:50:13;;;;;;;6.10;4.53;;;;;;;10.41;74.94;100922.06;5098612;28;20051;-65
2021/10/13 12:52:57;;;;;;;5.55;4.30;;;;;;;10.45;74.82;100930.81;5098302;28;20137;-64
2021/10/13 12:55:47;;;;;;;6.88;4.15;;;;;;;10.45;74.51;100930.81;5113873;28;20043;-65
2021/10/13 12:58:34;;;;;;;6.25;4.35;;;;;;;10.44;74.90;100936.81;5113480;28;20097;-64
2021/10/13 13:01:18;;;;;;;11.27;4.57;;;;;;;10.43;74.82;100929.88;5113630;28;20085;-64
2021/10/13 13:04:04;;;;;;;4.97;4.47;;;;;;;10.45;74.60;100925.63;5113640;28;20086;-64
2021/10/13 13:06:51;;;;;;;5.10;4.35;;;;;;;10.48;74.44;100928.31;5113816;28;20556;-64
2021/10/13 13:09:40;;;;;;;7.40;4.65;;;;;;;10.49;74.92;100930.06;5127464;28;20054;-64
2021/10/13 13:12:26;;;;;;;8.90;5.13;;;;;;;10.49;74.71;100940.44;5097685;28;20407;-64
2021/10/13 13:15:14;;;;;;;7.57;4.40;;;;;;;10.48;74.81;100936.09;5113273;28;20090;-64
2021/10/13 13:18:02;;;;;;;7.90;4.10;;;;;;;10.48;74.81;100938.69;5114285;28;20082;-64